Time;durP1;ratioP1;P1;durP2;ratioP2;P2;SDS_P1;SDS_P2;PMS_P1;PMS_P2;Temp;Humidity;BMP_temperature;BMP_pressure;BME280_temperature;BME280_humidity;BME280_pressure;Samples;Min_cycle;Max_cycle;Signal;HPM_P1;HPM_P2
2023/08/28 00:01:46;;;;;;;0.00;0.00;;;;;;;15.55;57.93;101101.66;7359242;19;20022;-56
2023/08/28 00:04:11;;;;;;;0.00;0.00;;;;;;;15.48;58.07;101100.16;7362314;19;19998;-56
2023/08/28 00:06:37;;;;;;;0.00;0.00;;;;;;;15.51;57.79;101113.19;7363391;19;20734;-57
2023/08/28 00:09:02;;;;;;;0.00;0.00;;;;;;;15.47;57.77;101119.53;7363060;19;20044;-58
2023/08/28 00:11:28;;;;;;;0.00;0.00;;;;;;;15.32;58.38;101106.00;7365989;19;20013;-57
2023/08/28 00:13:53;;;;;;;0.00;0.00;;;;;;;15.41;58.32;101124.97;7364307;19;20007;-58
2023/08/28 00:16:19;;;;;;;0.00;0.00;;;;;;;15.37;58.29;101132.16;7371779;19;20608;-58
2023/08/28 00:18:44;;;;;;;0.00;0.00;;;;;;;15.34;57.96;101141.91;7360581;19;20015;-58
2023/08/28 00:21:10;;;;;;;0.00;0.00;;;;;;;15.31;58.21;101135.84;7358912;19;21052;-57
2023/08/28 00:23:35;;;;;;;0.00;0.00;;;;;;;15.26;58.42;101134.31;7361817;19;20010;-57
2023/08/28 00:26:00;;;;;;;0.10;0.10;;;;;;;15.25;58.39;101138.69;7361701;19;20563;-57
2023/08/28 00:28:26;;;;;;;0.00;0.00;;;;;;;15.20;58.00;101126.59;7368501;19;20041;-57
2023/08/28 00:30:51;;;;;;;0.00;0.00;;;;;;;15.17;58.25;101129.34;7369573;19;20712;-57
2023/08/28 00:33:17;;;;;;;0.10;0.10;;;;;;;15.13;58.54;101125.13;7360701;19;20041;-57
2023/08/28 00:35:42;;;;;;;0.00;0.00;;;;;;;15.08;58.55;101127.91;7363208;19;20429;-58
2023/08/28 00:38:09;;;;;;;0.00;0.00;;;;;;;15.05;58.63;101117.47;7359719;19;20014;-56
2023/08/28 00:40:41;;;;;;;0.00;0.00;;;;;;;14.94;58.51;101104.69;7373771;19;20438;-58
2023/08/28 00:43:09;;;;;;;0.10;0.10;;;;;;;14.97;58.32;101112.50;7362199;19;20101;-56
2023/08/28 00:45:41;;;;;;;0.00;0.00;;;;;;;14.94;58.29;101124.88;7360234;19;20371;-57
2023/08/28 00:48:09;;;;;;;0.10;0.10;;;;;;;14.90;58.17;101116.25;7360969;19;20033;-58
2023/08/28 00:50:35;;;;;;;0.00;0.00;;;;;;;14.87;58.72;101112.84;7361593;19;20861;-55
2023/08/28 00:53:01;;;;;;;0.10;0.10;;;;;;;14.86;58.95;101111.16;7355588;19;20010;-56
2023/08/28 00:55:29;;;;;;;0.10;0.10;;;;;;;14.79;59.45;101100.81;7367469;19;20066;-57
2023/08/28 00:57:54;;;;;;;0.00;0.00;;;;;;;14.85;58.99;101119.91;7355858;19;20018;-57
2023/08/28 01:00:20;;;;;;;0.00;0.00;;;;;;;14.81;59.44;101107.81;7361715;19;20010;-56
2023/08/28 01:02:45;;;;;;;0.10;0.10;;;;;;;14.86;59.13;101111.16;7360021;19;20077;-57
2023/08/28 01:05:11;;;;;;;0.00;0.00;;;;;;;14.83;59.60;101106.84;7360180;19;20010;-56
2023/08/28 01:08:06;;;;;;;0.10;0.10;;;;;;;14.92;58.83;101113.56;7358944;19;20015;-57
2023/08/28 01:10:58;;;;;;;0.00;0.00;;;;;;;14.92;59.31;101119.69;7360692;19;20006;-56
2023/08/28 01:13:36;;;;;;;0.10;0.10;;;;;;;14.96;59.08;101107.28;7359398;19;20022;-57
2023/08/28 01:16:02;;;;;;;;;;;;;;;15.00;58.00;101108.88;7362224;19;20006;-58
2023/08/28 01:18:28;;;;;;;0.10;0.10;;;;;;;14.98;59.99;101105.44;7358255;19;20359;-57
2023/08/28 01:20:54;;;;;;;0.00;0.00;;;;;;;14.93;59.66;101096.88;7360314;19;20011;-56
2023/08/28 01:23:57;;;;;;;0.10;0.10;;;;;;;15.08;58.90;101101.59;7365605;19;20014;-57
2023/08/28 01:26:24;;;;;;;0.10;0.10;;;;;;;15.08;60.05;101103.38;7353222;19;20019;-57
2023/08/28 01:28:50;;;;;;;0.10;0.10;;;;;;;15.11;60.04;101106.75;7361190;19;20077;-57
2023/08/28 01:31:15;;;;;;;0.00;0.00;;;;;;;15.13;60.25;101115.44;7359878;19;20347;-58
2023/08/28 01:33:41;;;;;;;0.00;0.00;;;;;;;15.16;60.74;101119.75;7359235;19;20009;-56
2023/08/28 01:36:30;;;;;;;0.10;0.10;;;;;;;15.22;59.28;101115.13;7354166;19;20018;-57
2023/08/28 01:39:07;;;;;;;0.10;0.10;;;;;;;15.25;59.95;101120.25;7358195;19;20021;-57
2023/08/28 01:41:33;;;;;;;0.00;0.00;;;;;;;15.13;60.41;101104.91;7360692;19;20015;-56
2023/08/28 01:44:01;;;;;;;0.00;0.00;;;;;;;15.30;60.76;101128.00;7357578;19;20037;-57
2023/08/28 01:46:28;;;;;;;0.10;0.10;;;;;;;15.31;60.79;101122.69;7361275;19;20014;-57
2023/08/28 01:48:54;;;;;;;0.00;0.00;;;;;;;15.35;60.86;101130.47;7359587;19;20017;-57
2023/08/28 01:51:20;;;;;;;0.10;0.10;;;;;;;15.38;60.83;101127.75;7360777;19;20054;-57
2023/08/28 01:53:47;;;;;;;0.00;0.00;;;;;;;15.38;60.98;101120.69;7357230;19;20532;-58
2023/08/28 01:56:17;;;;;;;0.10;0.10;;;;;;;15.44;61.03;101132.78;7353886;19;20006;-57
2023/08/28 01:58:54;;;;;;;0.00;0.00;;;;;;;15.34;60.45;101103.28;7351215;19;20033;-58
2023/08/28 02:01:21;;;;;;;0.00;0.00;;;;;;;15.45;60.67;101116.06;7362345;19;20478;-58
2023/08/28 02:03:47;;;;;;;0.10;0.10;;;;;;;15.50;61.11;101129.91;7361011;19;20014;-57
2023/08/28 02:06:12;;;;;;;0.10;0.10;;;;;;;15.38;61.01;101104.91;7361491;19;20006;-57
2023/08/28 02:08:38;;;;;;;0.00;0.00;;;;;;;15.48;60.98;101108.94;7361557;19;20022;-57
2023/08/28 02:11:04;;;;;;;0.00;0.00;;;;;;;15.55;61.07;101112.19;7363528;19;20033;-58
2023/08/28 02:13:29;;;;;;;0.00;0.00;;;;;;;15.58;61.33;101112.94;7359327;19;20009;-57
2023/08/28 02:15:54;;;;;;;0.00;0.00;;;;;;;15.61;61.25;101106.69;7355619;19;20093;-57
2023/08/28 02:18:20;;;;;;;0.00;0.00;;;;;;;15.62;61.03;101097.91;7366285;19;20011;-57
2023/08/28 02:20:45;;;;;;;0.00;0.00;;;;;;;15.64;61.40;101100.50;7369267;19;20018;-59
2023/08/28 02:23:11;;;;;;;0.00;0.00;;;;;;;15.64;61.19;101101.34;7368162;19;20742;-58
2023/08/28 02:25:45;;;;;;;0.10;0.10;;;;;;;15.60;60.49;101083.91;7367455;19;20617;-57
2023/08/28 02:28:11;;;;;;;0.10;0.10;;;;;;;15.68;61.48;101105.59;7369180;19;20011;-58
2023/08/28 02:30:36;;;;;;;0.00;0.00;;;;;;;15.71;61.26;101107.25;7372880;19;20042;-55
2023/08/28 02:33:02;;;;;;;0.03;0.03;;;;;;;15.72;61.60;101109.84;7371127;19;20027;-57
2023/08/28 02:35:27;;;;;;;0.00;0.00;;;;;;;15.72;61.66;101104.56;7367164;19;20018;-57
2023/08/28 02:37:53;;;;;;;0.10;0.10;;;;;;;15.74;61.37;101107.13;7374262;19;20007;-57
2023/08/28 02:40:18;;;;;;;0.10;0.10;;;;;;;15.75;61.56;101109.69;7368950;19;20761;-57
2023/08/28 02:42:44;;;;;;;0.00;0.00;;;;;;;15.75;61.85;101107.06;7361186;19;20010;-56
2023/08/28 02:45:09;;;;;;;0.00;0.00;;;;;;;15.79;62.03;101106.03;7367949;19;20374;-56
2023/08/28 02:47:35;;;;;;;0.10;0.10;;;;;;;15.78;61.82;101099.06;7364856;19;20027;-57
2023/08/28 02:50:00;;;;;;;0.00;0.00;;;;;;;15.79;61.55;101111.31;7366955;19;20014;-57
2023/08/28 02:52:26;;;;;;;0.00;0.00;;;;;;;15.80;61.78;101113.03;7360352;19;20066;-57
2023/08/28 02:54:51;;;;;;;0.03;0.03;;;;;;;15.81;62.10;101120.03;7366554;19;20446;-57
2023/08/28 02:57:17;;;;;;;0.03;0.03;;;;;;;15.69;62.01;101094.13;7363635;19;20011;-57
2023/08/28 02:59:42;;;;;;;0.00;0.00;;;;;;;15.83;62.00;101118.19;7367800;19;20418;-58
2023/08/28 03:02:08;;;;;;;0.00;0.00;;;;;;;15.86;62.10;101116.34;7366847;19;20002;-58
2023/08/28 03:04:34;;;;;;;0.00;0.00;;;;;;;15.86;62.44;101111.06;7365558;19;20014;-57
2023/08/28 03:07:00;;;;;;;0.10;0.10;;;;;;;15.88;62.79;101109.25;7365458;19;20010;-58
2023/08/28 03:09:25;;;;;;;0.00;0.00;;;;;;;15.87;62.47;101108.41;7368704;19;20110;-56
2023/08/28 03:11:51;;;;;;;0.00;0.00;;;;;;;15.81;62.51;101104.22;7366626;19;20030;-58
2023/08/28 03:14:16;;;;;;;0.10;0.10;;;;;;;15.87;62.82;101091.75;7363977;19;20006;-57
2023/08/28 03:16:42;;;;;;;0.00;0.00;;;;;;;15.88;62.83;101094.31;7362334;19;20456;-58
2023/08/28 03:19:07;;;;;;;0.10;0.10;;;;;;;15.89;63.04;101103.91;7349646;19;20006;-57
2023/08/28 03:21:35;;;;;;;0.00;0.00;;;;;;;15.91;62.26;101109.13;7371815;19;20018;-57
2023/08/28 03:24:01;;;;;;;0.03;0.03;;;;;;;15.89;62.83;101108.31;7364247;19;20739;-57
2023/08/28 03:26:29;;;;;;;0.10;0.10;;;;;;;15.89;62.66;101108.31;7365530;19;20041;-58
2023/08/28 03:28:54;;;;;;;0.10;0.10;;;;;;;15.89;63.03;101108.31;7364353;19;20006;-56
2023/08/28 03:31:22;;;;;;;0.00;0.00;;;;;;;15.81;62.72;101083.16;7366825;19;20102;-58
2023/08/28 03:33:47;;;;;;;0.10;0.10;;;;;;;15.89;62.78;101095.16;7366170;19;20022;-57
2023/08/28 03:36:13;;;;;;;0.00;0.00;;;;;;;15.91;62.75;101090.69;7362517;19;20029;-57
2023/08/28 03:38:38;;;;;;;0.10;0.10;;;;;;;15.91;63.16;101096.81;7366433;19;20478;-57
2023/08/28 03:41:04;;;;;;;0.05;0.05;;;;;;;15.92;63.09;101100.31;7364871;19;20490;-57
2023/08/28 03:43:29;;;;;;;0.00;0.00;;;;;;;15.90;63.11;101102.13;7362774;19;20409;-58
2023/08/28 03:45:54;;;;;;;0.00;0.00;;;;;;;15.90;63.14;101102.13;7363894;19;20507;-58
2023/08/28 03:48:20;;;;;;;0.10;0.10;;;;;;;15.88;63.05;101106.63;7365853;19;20006;-58
2023/08/28 03:50:46;;;;;;;0.00;0.00;;;;;;;15.86;62.97;101106.66;7365747;19;20810;-57
2023/08/28 03:53:11;;;;;;;0.00;0.00;;;;;;;15.85;62.75;101109.34;7362998;19;20006;-58
2023/08/28 03:55:37;;;;;;;0.00;0.00;;;;;;;15.83;63.17;101109.44;7366750;19;20030;-57
2023/08/28 03:58:03;;;;;;;0.08;0.08;;;;;;;15.81;62.95;101108.59;7364849;19;20007;-57
2023/08/28 04:00:29;;;;;;;0.10;0.10;;;;;;;15.80;62.90;101112.16;7368392;19;20014;-58
2023/08/28 04:02:55;;;;;;;0.00;0.00;;;;;;;15.77;63.09;101113.16;7374822;19;20024;-58
2023/08/28 04:05:22;;;;;;;0.00;0.00;;;;;;;15.78;63.26;101109.59;7370153;19;20010;-56
2023/08/28 04:07:48;;;;;;;0.10;0.10;;;;;;;15.79;62.99;101106.03;7364471;19;20011;-56
2023/08/28 04:10:13;;;;;;;0.00;0.00;;;;;;;15.75;63.58;101098.31;7365803;19;20016;-57
2023/08/28 04:12:39;;;;;;;0.10;0.10;;;;;;;15.77;63.50;101107.88;7365157;19;20405;-57
2023/08/28 04:15:08;;;;;;;0.10;0.10;;;;;;;15.78;63.41;101104.31;7366428;19;20026;-57
2023/08/28 04:17:34;;;;;;;0.10;0.10;;;;;;;15.76;63.44;101098.28;7360700;19;20018;-57
2023/08/28 04:20:08;;;;;;;0.00;0.00;;;;;;;15.79;62.98;101094.66;7358931;19;20010;-58
2023/08/28 04:22:34;;;;;;;0.00;0.00;;;;;;;15.76;63.50;101103.53;7361264;19;20014;-58
2023/08/28 04:25:00;;;;;;;0.00;0.00;;;;;;;15.76;63.49;101100.91;7364942;19;20014;-57
2023/08/28 04:27:26;;;;;;;0.05;0.05;;;;;;;15.77;63.28;101102.63;7364099;19;20041;-58
2023/08/28 04:29:51;;;;;;;0.10;0.10;;;;;;;15.78;63.61;101099.06;7366088;19;20007;-58
2023/08/28 04:32:16;;;;;;;0.00;0.00;;;;;;;15.78;63.59;101103.47;7364929;19;20038;-57
2023/08/28 04:34:43;;;;;;;0.00;0.00;;;;;;;15.79;63.52;101100.78;7362605;19;20424;-58
2023/08/28 04:37:08;;;;;;;0.00;0.00;;;;;;;15.79;63.66;101102.56;7371789;19;20002;-57
2023/08/28 04:39:34;;;;;;;0.00;0.00;;;;;;;15.79;63.86;101103.41;7363788;19;20086;-57
2023/08/28 04:41:59;;;;;;;0.00;0.00;;;;;;;15.79;63.79;101108.66;7366237;19;20010;-58
2023/08/28 04:44:25;;;;;;;0.00;0.00;;;;;;;15.79;63.88;101103.41;7370587;19;20027;-57
2023/08/28 04:46:50;;;;;;;0.10;0.10;;;;;;;15.78;63.35;101104.31;7366228;19;20007;-56
2023/08/28 04:49:15;;;;;;;0.00;0.00;;;;;;;15.79;63.82;101107.81;7360513;19;20314;-58
2023/08/28 04:51:41;;;;;;;0.00;0.00;;;;;;;15.76;63.62;101114.06;7352572;19;20403;-57
2023/08/28 04:54:07;;;;;;;0.10;0.10;;;;;;;15.78;63.83;101117.50;7364965;19;20014;-57
2023/08/28 04:56:32;;;;;;;0.00;0.00;;;;;;;15.78;63.37;101116.63;7363282;19;20931;-58
2023/08/28 04:58:57;;;;;;;0.00;0.00;;;;;;;15.77;63.51;101123.69;7366140;19;20010;-58
2023/08/28 05:01:24;;;;;;;0.10;0.10;;;;;;;15.75;63.58;101125.50;7363314;19;20010;-58
2023/08/28 05:03:49;;;;;;;0.10;0.10;;;;;;;15.73;63.73;101127.34;7364595;19;20042;-58
2023/08/28 05:06:15;;;;;;;0.00;0.00;;;;;;;15.73;63.73;101119.44;7369243;19;19998;-57
2023/08/28 05:08:40;;;;;;;0.03;0.03;;;;;;;15.72;64.02;101116.88;7373549;19;20011;-58
2023/08/28 05:11:06;;;;;;;0.10;0.10;;;;;;;15.71;63.94;101115.13;7373471;19;20023;-57
2023/08/28 05:13:31;;;;;;;0.10;0.10;;;;;;;15.70;64.10;101122.19;7367660;19;20066;-58
2023/08/28 05:15:56;;;;;;;0.00;0.00;;;;;;;15.68;64.34;101110.84;7363092;19;20022;-56
2023/08/28 05:18:22;;;;;;;0.00;0.00;;;;;;;15.67;64.57;101117.03;7362798;19;20026;-57
2023/08/28 05:20:48;;;;;;;0.00;0.00;;;;;;;15.67;64.49;101106.50;7364433;19;20016;-56
2023/08/28 05:23:13;;;;;;;0.00;0.00;;;;;;;15.67;64.53;101110.94;7362495;19;20006;-57
2023/08/28 05:25:39;;;;;;;0.10;0.10;;;;;;;15.60;64.53;101109.38;7361815;19;20022;-58
2023/08/28 05:28:04;;;;;;;0.00;0.00;;;;;;;15.60;64.75;101107.59;7360899;19;20018;-57
2023/08/28 05:30:30;;;;;;;0.00;0.00;;;;;;;15.64;64.92;101118.94;7364003;19;20031;-58
2023/08/28 05:32:55;;;;;;;0.00;0.00;;;;;;;15.63;64.68;101120.69;7356133;19;20005;-58
2023/08/28 05:35:21;;;;;;;0.10;0.10;;;;;;;15.63;64.57;101107.53;7360892;19;20015;-57
2023/08/28 05:37:46;;;;;;;0.00;0.00;;;;;;;15.63;64.55;101112.81;7362322;19;20018;-57
2023/08/28 05:40:14;;;;;;;0.00;0.00;;;;;;;15.63;64.94;101123.34;7361818;19;20014;-57
2023/08/28 05:42:43;;;;;;;0.00;0.00;;;;;;;15.64;64.93;101122.41;7362641;19;20003;-56
2023/08/28 05:45:09;;;;;;;0.10;0.10;;;;;;;15.64;64.64;101125.03;7363266;19;20523;-57
2023/08/28 05:47:36;;;;;;;0.00;0.00;;;;;;;15.58;64.75;101127.88;7363698;19;20002;-58
2023/08/28 05:50:04;;;;;;;0.00;0.00;;;;;;;15.64;64.69;101143.47;7360078;19;20474;-58
2023/08/28 05:52:30;;;;;;;0.00;0.00;;;;;;;15.65;64.99;101134.66;7367216;19;20006;-58
2023/08/28 05:54:55;;;;;;;0.00;0.00;;;;;;;15.66;65.01;101131.13;7368917;19;20222;-57
2023/08/28 05:57:23;;;;;;;0.00;0.00;;;;;;;15.68;64.87;101129.28;7368904;19;20003;-58
2023/08/28 05:59:50;;;;;;;0.05;0.05;;;;;;;15.68;64.80;101129.28;7364227;19;20645;-58
2023/08/28 06:02:15;;;;;;;0.10;0.10;;;;;;;15.67;65.11;101122.31;7369239;19;20014;-57
2023/08/28 06:04:44;;;;;;;0.10;0.10;;;;;;;15.72;64.88;101120.38;7371591;19;20024;-57
2023/08/28 06:07:10;;;;;;;0.00;0.00;;;;;;;15.71;64.93;101126.56;7367698;19;20378;-58
2023/08/28 06:09:35;;;;;;;0.00;0.00;;;;;;;15.73;64.72;101116.81;7368357;19;20093;-58
2023/08/28 06:12:01;;;;;;;0.10;0.10;;;;;;;15.76;65.19;101110.56;7370590;19;20002;-57
2023/08/28 06:14:26;;;;;;;0.05;0.05;;;;;;;15.77;64.68;101102.63;7373231;19;20268;-57
2023/08/28 06:16:51;;;;;;;0.00;0.00;;;;;;;15.78;64.96;101099.06;7366998;19;20012;-57
2023/08/28 06:19:17;;;;;;;0.00;0.00;;;;;;;15.77;64.79;101092.09;7369129;19;20070;-57
2023/08/28 06:21:44;;;;;;;0.10;0.10;;;;;;;15.83;65.09;101118.19;7366690;19;20655;-57
2023/08/28 06:24:11;;;;;;;0.10;0.10;;;;;;;15.85;65.26;101125.16;7369166;19;20015;-57
2023/08/28 06:26:37;;;;;;;0.10;0.10;;;;;;;15.86;64.71;101121.59;7364638;19;20039;-57
2023/08/28 06:29:03;;;;;;;0.10;0.10;;;;;;;15.88;65.03;101125.06;7366722;19;20039;-58
2023/08/28 06:31:29;;;;;;;0.10;0.10;;;;;;;15.87;64.91;101118.06;7364710;19;20011;-57
2023/08/28 06:33:54;;;;;;;0.10;0.10;;;;;;;15.92;64.80;101122.25;7372160;19;20015;-57
2023/08/28 06:36:20;;;;;;;0.10;0.10;;;;;;;15.94;65.21;101124.81;7369729;19;20037;-58
2023/08/28 06:38:46;;;;;;;0.00;0.00;;;;;;;15.95;64.86;101127.38;7367665;19;20861;-58
2023/08/28 06:41:11;;;;;;;0.05;0.05;;;;;;;15.98;64.99;101129.91;7369035;19;20726;-57
2023/08/28 06:43:37;;;;;;;0.00;0.00;;;;;;;15.98;64.84;101126.41;7359383;19;20013;-58
2023/08/28 06:46:03;;;;;;;0.03;0.03;;;;;;;16.04;64.71;101126.19;7368843;19;20026;-57
2023/08/28 06:48:28;;;;;;;0.00;0.00;;;;;;;16.06;65.01;101129.59;7368800;19;20494;-58
2023/08/28 06:50:56;;;;;;;0.00;0.00;;;;;;;16.05;64.94;101127.88;7365448;19;20018;-56
2023/08/28 06:53:22;;;;;;;0.00;0.00;;;;;;;16.13;65.22;101131.09;7370018;19;20006;-56
2023/08/28 06:55:47;;;;;;;0.00;0.00;;;;;;;16.17;64.94;101142.34;7367597;19;20572;-57
2023/08/28 06:58:13;;;;;;;0.10;0.10;;;;;;;16.21;65.17;101136.91;7365454;19;20603;-58
2023/08/28 07:00:38;;;;;;;0.00;0.00;;;;;;;16.24;64.95;101139.44;7369539;19;20014;-57
2023/08/28 07:03:04;;;;;;;0.00;0.00;;;;;;;16.28;64.85;101134.91;7366462;19;20002;-58
2023/08/28 07:05:30;;;;;;;0.10;0.10;;;;;;;16.29;65.20;101137.47;7367731;19;20014;-57
2023/08/28 07:07:55;;;;;;;0.00;0.00;;;;;;;16.37;65.28;101133.66;7365673;19;20022;-57
2023/08/28 07:10:20;;;;;;;0.10;0.10;;;;;;;16.41;64.88;101143.19;7365456;19;20703;-56
2023/08/28 07:12:46;;;;;;;0.08;0.08;;;;;;;16.47;64.72;101140.28;7360645;19;20592;-58
2023/08/28 07:15:17;;;;;;;0.00;0.00;;;;;;;16.50;65.08;101142.81;7362150;19;20010;-57
2023/08/28 07:17:43;;;;;;;0.05;0.05;;;;;;;16.54;64.90;101141.78;7355279;19;20003;-59
2023/08/28 07:20:09;;;;;;;0.00;0.00;;;;;;;16.58;64.55;101140.75;7364295;19;20138;-57
2023/08/28 07:22:34;;;;;;;0.10;0.10;;;;;;;16.62;64.80;101139.66;7360609;19;20429;-58
2023/08/28 07:25:00;;;;;;;0.00;0.00;;;;;;;16.67;64.57;101142.97;7357729;19;20014;-57
2023/08/28 07:27:26;;;;;;;0.00;0.00;;;;;;;16.71;64.67;101149.00;7362306;19;20010;-58
2023/08/28 07:29:51;;;;;;;0.10;0.10;;;;;;;16.72;64.30;101156.88;7341826;19;20019;-57
2023/08/28 07:32:17;;;;;;;0.00;0.00;;;;;;;16.73;63.98;101147.19;7355635;19;20010;-58
2023/08/28 07:34:42;;;;;;;0.00;0.00;;;;;;;16.75;64.49;101145.34;7352537;19;20010;-57
2023/08/28 07:37:07;;;;;;;0.10;0.10;;;;;;;16.79;64.33;101153.06;7349980;19;20382;-58
2023/08/28 07:39:33;;;;;;;0.00;0.00;;;;;;;16.65;64.29;101122.88;7356047;19;20014;-57
2023/08/28 07:41:58;;;;;;;0.00;0.00;;;;;;;16.81;64.34;101153.84;7355143;19;20006;-58
2023/08/28 07:44:24;;;;;;;0.00;0.00;;;;;;;16.83;64.29;101149.41;7363646;19;20036;-58
2023/08/28 07:46:49;;;;;;;0.03;0.03;;;;;;;16.84;64.17;101145.81;7362760;19;20002;-58
2023/08/28 07:49:15;;;;;;;0.00;0.00;;;;;;;16.88;64.30;101161.50;7364910;19;20124;-58
2023/08/28 07:51:40;;;;;;;0.10;0.10;;;;;;;16.90;64.27;101149.13;7363274;19;20558;-57
2023/08/28 07:54:05;;;;;;;0.00;0.00;;;;;;;16.94;64.12;101146.31;7365555;19;20021;-58
2023/08/28 07:56:31;;;;;;;0.10;0.10;;;;;;;16.97;64.00;101154.06;7361497;19;20006;-58
2023/08/28 07:58:56;;;;;;;0.00;0.00;;;;;;;17.01;64.43;101160.09;7363118;19;20098;-58
2023/08/28 08:01:22;;;;;;;0.00;0.00;;;;;;;17.04;64.32;101158.19;7366361;19;20017;-57
2023/08/28 08:03:48;;;;;;;0.08;0.08;;;;;;;17.07;64.37;101158.03;7362631;19;19999;-57
2023/08/28 08:06:13;;;;;;;0.00;0.00;;;;;;;17.11;64.20;101159.63;7366063;19;20010;-58
2023/08/28 08:08:39;;;;;;;0.08;0.08;;;;;;;17.16;63.94;101158.59;7366086;19;20010;-57
2023/08/28 08:11:04;;;;;;;0.10;0.10;;;;;;;17.19;64.43;101150.53;7365718;19;20392;-58
2023/08/28 08:13:29;;;;;;;0.10;0.10;;;;;;;17.22;64.53;101148.59;7360747;19;20007;-58
2023/08/28 08:15:55;;;;;;;0.10;0.10;;;;;;;17.27;64.60;101153.69;7362001;19;20346;-58
2023/08/28 08:18:20;;;;;;;0.00;0.00;;;;;;;17.29;64.61;101147.44;7364896;19;19999;-57
2023/08/28 08:20:45;;;;;;;0.10;0.10;;;;;;;17.30;64.64;101149.16;7364781;19;20007;-57
2023/08/28 08:23:11;;;;;;;0.10;0.10;;;;;;;17.30;64.33;101154.44;7366166;19;20409;-57
2023/08/28 08:25:37;;;;;;;0.10;0.10;;;;;;;17.33;64.60;101161.34;7364527;19;20038;-57
2023/08/28 08:28:03;;;;;;;0.00;0.00;;;;;;;17.29;64.66;101144.78;7362317;19;20045;-58
2023/08/28 08:30:28;;;;;;;0.00;0.00;;;;;;;17.36;64.80;101163.84;7364922;19;20861;-58
2023/08/28 08:32:53;;;;;;;0.03;0.03;;;;;;;17.35;64.59;101163.00;7363391;19;20014;-58
2023/08/28 08:35:19;;;;;;;0.00;0.00;;;;;;;17.37;64.89;101170.84;7363753;19;20093;-57
2023/08/28 08:37:47;;;;;;;0.05;0.05;;;;;;;17.41;64.78;101168.94;7365965;19;20110;-58
2023/08/28 08:40:13;;;;;;;0.08;0.08;;;;;;;17.43;64.43;101167.94;7365601;19;20359;-56
2023/08/28 08:42:40;;;;;;;0.10;0.10;;;;;;;17.46;64.51;101174.88;7367312;19;20025;-58
2023/08/28 08:45:06;;;;;;;0.05;0.05;;;;;;;17.51;65.02;101167.63;7367891;19;20035;-57
2023/08/28 08:47:31;;;;;;;0.10;0.10;;;;;;;17.47;64.85;101144.91;7367811;19;20046;-58
2023/08/28 08:49:59;;;;;;;0.05;0.05;;;;;;;17.68;64.95;101154.50;7359950;19;20940;-57
2023/08/28 08:52:25;;;;;;;0.08;0.08;;;;;;;17.71;65.41;101159.66;7363846;19;20014;-57
2023/08/28 08:54:56;;;;;;;0.00;0.00;;;;;;;17.85;64.98;101154.66;7364203;19;20092;-58
2023/08/28 08:57:36;;;;;;;0.10;0.10;;;;;;;18.00;64.66;101152.22;7363840;19;20006;-57
2023/08/28 09:00:04;;;;;;;0.00;0.00;;;;;;;18.09;64.50;101155.28;7365625;19;20125;-58
2023/08/28 09:02:30;;;;;;;0.00;0.00;;;;;;;18.23;64.96;101153.78;7362334;19;20027;-57
2023/08/28 09:04:56;;;;;;;0.10;0.10;;;;;;;18.32;64.89;101153.34;7365300;19;20036;-57
2023/08/28 09:07:25;;;;;;;0.00;0.00;;;;;;;18.48;64.27;101156.97;7362930;19;20019;-57
2023/08/28 09:09:50;;;;;;;0.08;0.08;;;;;;;18.57;64.30;101161.81;7364901;19;20010;-57
2023/08/28 09:12:17;;;;;;;0.10;0.10;;;;;;;18.67;64.17;101152.50;7363701;19;20014;-57
2023/08/28 09:14:42;;;;;;;0.08;0.08;;;;;;;18.79;63.34;101152.84;7364936;19;20013;-57
2023/08/28 09:17:07;;;;;;;0.10;0.10;;;;;;;18.88;63.07;101140.03;7363700;19;20042;-57
2023/08/28 09:19:34;;;;;;;0.00;0.00;;;;;;;19.05;62.89;101146.25;7364039;19;20477;-56
2023/08/28 09:22:03;;;;;;;0.00;0.00;;;;;;;19.17;63.15;101135.03;7363829;19;20070;-58
2023/08/28 09:24:29;;;;;;;0.10;0.10;;;;;;;19.24;62.75;101136.44;7364904;19;20014;-57
2023/08/28 09:26:55;;;;;;;0.00;0.00;;;;;;;19.38;62.23;101139.22;7354735;19;20018;-58
2023/08/28 09:29:22;;;;;;;0.00;0.00;;;;;;;19.49;61.85;101141.28;7360050;19;20802;-58
2023/08/28 09:31:48;;;;;;;0.10;0.10;;;;;;;19.48;61.84;101114.91;7370644;19;20014;-58
2023/08/28 09:34:14;;;;;;;0.10;0.10;;;;;;;19.68;61.36;101128.81;7374373;19;20010;-58
2023/08/28 09:36:43;;;;;;;0.10;0.10;;;;;;;19.82;61.21;101129.84;7370657;19;20030;-58
2023/08/28 09:39:09;;;;;;;0.10;0.10;;;;;;;19.95;61.35;101129.09;7372621;19;20018;-58
2023/08/28 09:41:48;;;;;;;0.10;0.10;;;;;;;20.18;61.34;101127.84;7369178;19;20334;-57
2023/08/28 09:44:15;;;;;;;0.00;0.00;;;;;;;20.32;60.66;101121.75;7366645;19;20011;-58
2023/08/28 09:46:43;;;;;;;0.10;0.10;;;;;;;20.55;60.70;101122.28;7365772;19;20843;-58
2023/08/28 09:49:10;;;;;;;0.05;0.05;;;;;;;20.82;60.87;101120.66;7375463;19;20772;-58
2023/08/28 09:51:47;;;;;;;0.10;0.10;;;;;;;21.19;61.07;101115.84;7351592;19;20006;-58
2023/08/28 09:54:14;;;;;;;0.00;0.00;;;;;;;21.43;59.65;101114.34;7365648;19;20036;-58
2023/08/28 09:56:40;;;;;;;0.10;0.10;;;;;;;21.78;58.80;101116.63;7366340;19;20014;-57
2023/08/28 09:59:07;;;;;;;0.10;0.10;;;;;;;22.08;58.46;101118.28;7364327;19;20034;-58
2023/08/28 10:01:34;;;;;;;0.10;0.10;;;;;;;22.33;57.80;101123.75;7365179;19;20021;-58
2023/08/28 10:04:10;;;;;;;0.10;0.10;;;;;;;22.63;57.96;101114.72;7368009;19;20010;-58
2023/08/28 10:06:40;;;;;;;0.10;0.10;;;;;;;22.77;56.13;101115.50;7367510;19;20016;-58
2023/08/28 10:09:12;;;;;;;0.10;0.10;;;;;;;22.91;55.67;101113.72;7369583;19;20014;-58
2023/08/28 10:11:39;;;;;;;0.10;0.10;;;;;;;23.00;55.09;101102.44;7362488;19;20499;-58
2023/08/28 10:14:06;;;;;;;0.10;0.10;;;;;;;23.16;54.36;101102.25;7367969;19;20014;-58
2023/08/28 10:16:49;;;;;;;0.10;0.10;;;;;;;23.44;56.17;101095.88;7362727;19;20010;-58
2023/08/28 10:19:21;;;;;;;0.00;0.00;;;;;;;23.62;54.77;101094.56;7366027;19;20418;-58
2023/08/28 10:21:47;;;;;;;0.00;0.00;;;;;;;23.79;54.02;101096.06;7363523;19;20469;-58
2023/08/28 10:24:14;;;;;;;0.00;0.00;;;;;;;24.09;53.85;101098.31;7365765;19;20014;-58
2023/08/28 10:26:42;;;;;;;0.10;0.10;;;;;;;24.46;53.44;101099.16;7365359;19;20014;-59
2023/08/28 10:29:09;;;;;;;0.10;0.10;;;;;;;24.75;53.31;101104.13;7368317;19;20409;-58
2023/08/28 10:31:36;;;;;;;;;;;;;;;25.30;56.29;101098.09;7370753;19;20010;-57
2023/08/28 10:34:03;;;;;;;0.00;0.00;;;;;;;25.46;51.39;101091.53;7367838;19;20481;-58
2023/08/28 10:36:29;;;;;;;;;;;;;;;26.05;55.74;101100.09;7367286;19;20014;-58
2023/08/28 10:38:55;;;;;;;0.10;0.10;;;;;;;26.22;50.99;101081.84;7364039;19;19982;-58
2023/08/28 10:41:22;;;;;;;0.03;0.03;;;;;;;26.52;49.96;101084.69;7367875;19;20514;-57
2023/08/28 10:43:49;;;;;;;0.10;0.10;;;;;;;26.85;49.96;101090.84;7365900;19;20030;-58
2023/08/28 10:46:15;;;;;;;;;;;;;;;27.37;54.05;101083.69;7367983;19;20015;-58
2023/08/28 10:48:40;;;;;;;0.10;0.10;;;;;;;27.40;48.03;101083.41;7364506;19;19926;-58
2023/08/28 10:51:10;;;;;;;0.20;0.20;;;;;;;27.75;48.86;101082.19;7366933;19;20012;-58
2023/08/28 10:53:36;;;;;;;0.03;0.03;;;;;;;27.88;45.43;101080.09;7361263;19;20010;-58
2023/08/28 10:56:02;;;;;;;0.10;0.10;;;;;;;28.15;45.42;101074.91;7366054;19;20029;-58
2023/08/28 10:58:31;;;;;;;0.08;0.08;;;;;;;28.53;44.22;101070.56;7362730;19;20451;-58
2023/08/28 11:01:14;;;;;;;0.08;0.08;;;;;;;28.89;47.79;101068.13;7369923;19;20017;-58
2023/08/28 11:03:51;;;;;;;0.00;0.00;;;;;;;29.13;46.53;101071.19;7369788;19;20006;-59
2023/08/28 11:06:35;;;;;;;0.10;0.10;;;;;;;29.40;46.09;101074.94;7364022;19;20010;-58
2023/08/28 11:09:28;;;;;;;0.00;0.00;;;;;;;29.63;45.34;101078.97;7367638;19;20740;-58
2023/08/28 11:12:03;;;;;;;0.00;0.00;;;;;;;29.77;42.32;101074.09;7366007;19;20032;-58
2023/08/28 11:14:39;;;;;;;0.00;0.00;;;;;;;29.78;41.88;101065.00;7344223;19;20765;-58
2023/08/28 11:17:05;;;;;;;0.00;0.00;;;;;;;29.79;42.03;101080.16;7364681;19;20026;-58
2023/08/28 11:19:31;;;;;;;0.00;0.00;;;;;;;29.82;38.81;101077.19;7366997;19;20595;-58
2023/08/28 11:21:59;;;;;;;0.10;0.10;;;;;;;29.99;41.53;101081.75;7367338;19;20469;-58
2023/08/28 11:24:25;;;;;;;0.00;0.00;;;;;;;30.04;39.04;101075.91;7368709;19;20006;-58
2023/08/28 11:26:52;;;;;;;0.05;0.05;;;;;;;30.14;39.72;101066.78;7363394;19;20466;-58